createdAt,value
2023-05-15T20:54:03.868Z,8.68
2023-05-15T20:56:30.641Z,11.95
2023-05-15T20:58:59.628Z,11.55
2023-05-15T21:01:26.729Z,13.32
2023-05-15T21:06:20.794Z,11.10
2023-05-15T21:08:47.578Z,11.35
2023-05-15T21:13:41.038Z,11.65
2023-05-15T21:18:34.768Z,13.00
2023-05-15T21:23:33.745Z,11.93
2023-05-15T21:26:00.537Z,13.02
2023-05-15T21:30:54.376Z,13.20
2023-05-15T21:35:48.713Z,12.00
2023-05-15T21:38:16.278Z,12.38
2023-05-15T21:40:43.070Z,13.00
2023-05-15T21:45:36.507Z,13.20
2023-05-15T21:50:30.615Z,11.88
2023-05-15T21:55:24.876Z,13.23
2023-05-15T21:57:51.581Z,12.30
2023-05-15T22:00:18.637Z,13.55
2023-05-15T22:02:45.621Z,14.02
2023-05-15T22:05:12.803Z,16.05
2023-05-15T22:07:40.435Z,14.80
2023-05-15T22:10:09.473Z,16.05
2023-05-15T22:12:36.490Z,15.60
2023-05-15T22:15:03.282Z,15.85
2023-05-15T22:20:07.923Z,16.10
2023-05-15T22:25:02.621Z,16.40
2023-05-15T22:27:29.464Z,17.85
2023-05-15T22:32:23.459Z,16.92
2023-05-15T22:34:50.319Z,17.33
2023-05-15T22:37:17.380Z,16.88
2023-05-15T22:39:44.417Z,18.55
2023-05-15T22:42:11.216Z,15.30
2023-05-15T22:47:05.039Z,16.05
2023-05-15T22:49:31.946Z,18.77
2023-05-15T22:54:25.626Z,18.85
2023-05-15T22:56:52.919Z,17.58
2023-05-15T22:59:20.782Z,17.70
2023-05-15T23:01:49.147Z,17.42
2023-05-15T23:04:17.003Z,18.90
2023-05-15T23:06:44.367Z,19.27
2023-05-15T23:09:11.564Z,19.30
2023-05-15T23:11:38.297Z,19.30
2023-05-15T23:14:05.370Z,21.75
2023-05-15T23:16:32.177Z,21.73
2023-05-15T23:21:26.256Z,21.27
2023-05-15T23:23:53.201Z,23.23
2023-05-15T23:26:20.032Z,21.13
2023-05-15T23:28:47.142Z,23.42
2023-05-15T23:31:14.359Z,22.42
2023-05-15T23:33:41.502Z,24.00
2023-05-15T23:36:08.711Z,22.73
2023-05-15T23:38:35.664Z,22.48
2023-05-15T23:41:02.550Z,23.60
2023-05-15T23:45:57.264Z,22.38
2023-05-15T23:48:24.049Z,22.45
2023-05-15T23:50:52.299Z,24.85
2023-05-15T23:53:19.246Z,24.20
2023-05-15T23:58:12.633Z,26.33
